Time;durP1;ratioP1;P1;durP2;ratioP2;P2;SDS_P1;SDS_P2;PMS_P1;PMS_P2;Temp;Humidity;BMP_temperature;BMP_pressure;BME280_temperature;BME280_humidity;BME280_pressure;Samples;Min_cycle;Max_cycle;Signal;HPM_P1;HPM_P2
2022/09/02 04:04:35;;;;;;;26.37;24.30;;;12.10;99.90;;;;;;5287689;23;20477;-74
2022/09/02 04:07:01;;;;;;;23.93;22.53;;;12.10;99.90;;;;;;4949523;29;20464;-73
2022/09/02 04:09:28;;;;;;;23.50;22.13;;;12.10;99.90;;;;;;4951864;29;20461;-74
2022/09/02 04:11:55;;;;;;;23.50;21.93;;;12.00;99.90;;;;;;4951664;29;20983;-74
2022/09/02 04:14:21;;;;;;;23.97;22.00;;;12.00;99.90;;;;;;4951732;29;20475;-74
2022/09/02 04:16:48;;;;;;;22.40;21.00;;;11.90;99.90;;;;;;4951638;29;20452;-74
2022/09/02 04:19:15;;;;;;;22.43;20.93;;;11.90;99.90;;;;;;4951749;29;20456;-74
2022/09/02 04:21:43;;;;;;;25.03;23.00;;;12.00;99.90;;;;;;4951884;29;20455;-74
2022/09/02 04:24:11;;;;;;;26.00;23.97;;;12.00;99.90;;;;;;4951547;29;20867;-72
2022/09/02 04:26:38;;;;;;;24.77;23.23;;;12.10;99.90;;;;;;4951419;29;20463;-74
2022/09/02 04:29:06;;;;;;;26.40;24.30;;;12.00;99.90;;;;;;4951507;29;20468;-74
2022/09/02 04:31:33;;;;;;;26.60;24.90;;;12.00;99.90;;;;;;4951446;29;20928;-74
2022/09/02 04:34:00;;;;;;;22.47;21.03;;;12.00;99.90;;;;;;4952534;28;20448;-73
2022/09/02 04:36:27;;;;;;;24.53;23.00;;;12.00;99.90;;;;;;4955489;29;20456;-74
2022/09/02 04:38:58;;;;;;;24.73;22.93;;;12.00;99.90;;;;;;4955299;29;20991;-74
2022/09/02 04:41:27;;;;;;;24.90;23.30;;;12.00;99.90;;;;;;4955337;29;20475;-73
2022/09/02 04:43:55;;;;;;;23.93;22.33;;;12.00;99.90;;;;;;4955224;29;20496;-73
2022/09/02 04:46:23;;;;;;;24.77;22.90;;;11.90;99.90;;;;;;4955214;29;20458;-74
2022/09/02 04:48:51;;;;;;;25.63;23.60;;;11.90;99.90;;;;;;4955033;29;20460;-74
2022/09/02 04:51:19;;;;;;;25.13;23.53;;;11.80;99.90;;;;;;4955017;29;20499;-73
2022/09/02 04:53:47;;;;;;;24.93;23.30;;;11.80;99.90;;;;;;4954903;29;20453;-73
2022/09/02 04:56:20;;;;;;;23.80;22.40;;;11.80;99.90;;;;;;4955118;29;20456;-73
2022/09/02 04:58:49;;;;;;;25.97;23.93;;;11.90;99.90;;;;;;4955128;29;20457;-73
2022/09/02 05:01:17;;;;;;;24.03;22.53;;;11.90;99.90;;;;;;4955022;29;20468;-73
2022/09/02 05:03:45;;;;;;;22.27;20.77;;;11.90;99.90;;;;;;4954624;28;20496;-73
2022/09/02 05:06:14;;;;;;;25.90;23.93;;;11.90;99.90;;;;;;4955162;29;20515;-74
2022/09/02 05:08:41;;;;;;;23.83;22.10;;;12.00;99.90;;;;;;4955093;29;20456;-74
2022/09/02 05:11:09;;;;;;;24.67;23.23;;;12.00;99.90;;;;;;4954685;29;20979;-74
2022/09/02 05:13:38;;;;;;;23.80;22.40;;;12.10;99.90;;;;;;4954618;29;20467;-73
2022/09/02 05:16:05;;;;;;;26.13;24.00;;;12.10;99.90;;;;;;4954613;29;20708;-74
2022/09/02 05:18:32;;;;;;;25.23;23.43;;;12.10;99.90;;;;;;4954515;29;20453;-74
2022/09/02 05:20:59;;;;;;;23.33;21.93;;;12.20;99.90;;;;;;4954680;29;20831;-75
2022/09/02 05:23:26;;;;;;;25.60;23.37;;;12.20;99.90;;;;;;4954640;29;20495;-75
2022/09/02 05:25:52;;;;;;;24.60;22.80;;;12.30;99.90;;;;;;4954466;29;20456;-74
2022/09/02 05:28:19;;;;;;;24.10;22.50;;;12.40;99.90;;;;;;4954308;29;20456;-74
2022/09/02 05:30:47;;;;;;;24.83;22.80;;;12.40;99.90;;;;;;4954356;29;20452;-75
2022/09/02 05:33:14;;;;;;;26.67;24.57;;;12.40;99.90;;;;;;4954504;29;20453;-75
2022/09/02 05:35:42;;;;;;;26.07;24.10;;;12.40;99.90;;;;;;4954712;29;20819;-74
2022/09/02 05:38:09;;;;;;;26.57;24.40;;;12.50;99.90;;;;;;4954163;29;21008;-74
2022/09/02 05:40:36;;;;;;;26.50;24.53;;;12.90;99.90;;;;;;4954345;29;20709;-74
2022/09/02 05:43:03;;;;;;;25.63;23.80;;;13.40;99.90;;;;;;4954080;29;20459;-73
2022/09/02 05:45:30;;;;;;;22.57;20.93;;;14.00;99.90;;;;;;4953769;28;20452;-74
2022/09/02 05:47:58;;;;;;;19.77;17.97;;;14.70;99.90;;;;;;4954529;29;20461;-73
2022/09/02 05:50:25;;;;;;;20.20;18.77;;;15.30;99.90;;;;;;4954430;29;20468;-71
2022/09/02 05:52:52;;;;;;;18.83;17.13;;;15.70;99.90;;;;;;4953871;29;20456;-71
2022/09/02 05:55:18;;;;;;;20.03;17.93;;;16.30;99.90;;;;;;4953753;29;20456;-73
2022/09/02 05:57:45;;;;;;;18.60;17.00;;;16.80;99.90;;;;;;4953743;29;20449;-71
2022/09/02 06:00:13;;;;;;;18.67;17.17;;;17.10;99.90;;;;;;4953793;29;20460;-72
2022/09/02 06:02:40;;;;;;;19.60;17.90;;;17.60;99.90;;;;;;4953614;28;20472;-73
2022/09/02 06:05:10;;;;;;;20.27;18.53;;;18.20;99.90;;;;;;4953361;29;20507;-72
2022/09/02 06:07:37;;;;;;;18.53;17.10;;;18.70;99.90;;;;;;4953388;29;20514;-73
2022/09/02 06:10:05;;;;;;;19.23;17.40;;;19.30;99.90;;;;;;4953462;29;20464;-72
2022/09/02 06:12:32;;;;;;;18.40;17.20;;;19.60;99.90;;;;;;4953575;29;20536;-72
2022/09/02 06:14:59;;;;;;;18.47;16.90;;;20.10;99.90;;;;;;4953312;29;20508;-73
2022/09/02 06:17:26;;;;;;;19.83;17.70;;;20.50;99.90;;;;;;4953357;29;20468;-71
2022/09/02 06:19:52;;;;;;;17.93;16.47;;;20.80;99.90;;;;;;4953193;29;20460;-71
2022/09/02 06:22:20;;;;;;;16.77;15.60;;;20.90;99.90;;;;;;4953095;29;20487;-71
2022/09/02 06:24:47;;;;;;;17.73;16.03;;;21.40;99.90;;;;;;4953116;29;20492;-71
2022/09/02 06:27:14;;;;;;;18.40;17.03;;;21.70;99.90;;;;;;4949421;29;21023;-71
2022/09/02 06:29:41;;;;;;;19.57;17.70;;;22.00;99.90;;;;;;4951124;29;20852;-71
2022/09/02 06:32:07;;;;;;;17.73;16.57;;;22.40;99.90;;;;;;4952715;29;20464;-72
2022/09/02 06:34:34;;;;;;;17.03;15.87;;;22.90;99.00;;;;;;4952901;29;20551;-72
2022/09/02 06:37:01;;;;;;;18.07;16.87;;;22.80;98.60;;;;;;4951166;29;21025;-72
2022/09/02 06:39:29;;;;;;;19.27;17.77;;;23.00;98.60;;;;;;4952645;29;20459;-72
2022/09/02 06:41:55;;;;;;;16.07;14.97;;;22.90;97.80;;;;;;4952715;29;20456;-72
2022/09/02 06:44:22;;;;;;;18.50;16.93;;;23.20;97.20;;;;;;4952434;29;21024;-72
2022/09/02 06:46:54;;;;;;;18.07;16.87;;;23.80;95.40;;;;;;4952340;29;20540;-72
2022/09/02 06:49:21;;;;;;;17.20;16.03;;;24.10;94.10;;;;;;4952209;29;20766;-72
2022/09/02 06:51:49;;;;;;;18.80;17.30;;;24.20;93.90;;;;;;4952271;29;20867;-72
2022/09/02 06:54:18;;;;;;;17.13;15.30;;;24.50;93.70;;;;;;4952196;29;20456;-72
2022/09/02 06:56:48;;;;;;;18.70;17.43;;;24.70;93.30;;;;;;4951607;28;20856;-73
2022/09/02 06:59:15;;;;;;;17.47;15.90;;;24.70;92.30;;;;;;4952508;29;20457;-73
2022/09/02 07:01:43;;;;;;;17.33;15.93;;;25.30;90.30;;;;;;4951951;28;20455;-72
2022/09/02 07:06:55;;;;;;;17.80;16.33;;;25.50;88.40;;;;;;4952159;29;20567;-72
2022/09/02 07:09:29;;;;;;;17.50;16.30;;;25.10;89.30;;;;;;4952206;29;20448;-72
2022/09/02 07:11:58;;;;;;;18.00;16.80;;;25.00;90.40;;;;;;4952360;29;20548;-73
2022/09/02 07:14:26;;;;;;;17.90;16.67;;;25.70;88.30;;;;;;4951974;29;20455;-72
2022/09/02 07:16:55;;;;;;;16.63;15.67;;;26.30;85.50;;;;;;4951730;29;20457;-72
2022/09/02 07:19:21;;;;;;;16.80;14.47;;;26.20;84.20;;;;;;4951917;29;20899;-71
2022/09/02 07:21:49;;;;;;;16.70;15.20;;;26.50;83.60;;;;;;4951668;29;20457;-73
2022/09/02 07:24:16;;;;;;;17.03;15.90;;;26.50;83.80;;;;;;4951770;29;20528;-72
2022/09/02 07:26:44;;;;;;;16.87;15.87;;;27.00;81.00;;;;;;4951876;29;20460;-72
2022/09/02 07:29:12;;;;;;;16.43;15.50;;;27.10;80.30;;;;;;4951854;29;20869;-72
2022/09/02 07:31:41;;;;;;;14.20;13.27;;;27.10;78.30;;;;;;4951685;29;20542;-71
2022/09/02 07:34:08;;;;;;;14.73;14.00;;;26.40;78.30;;;;;;4951441;29;20456;-72
2022/09/02 07:36:35;;;;;;;14.83;14.23;;;26.00;79.30;;;;;;4951371;29;20496;-72
2022/09/02 07:39:03;;;;;;;13.63;13.13;;;25.20;80.80;;;;;;4951460;29;20471;-72
2022/09/02 07:41:30;;;;;;;13.23;12.60;;;24.40;84.40;;;;;;4951569;29;20463;-72
2022/09/02 07:43:57;;;;;;;12.67;11.97;;;24.30;85.20;;;;;;4951856;29;20488;-74
2022/09/02 07:46:25;;;;;;;12.60;12.20;;;23.60;87.20;;;;;;4951450;29;20460;-72
2022/09/02 07:48:52;;;;;;;13.07;12.47;;;;;;;;;;4951231;29;20932;-72
2022/09/02 07:51:20;;;;;;;12.30;11.80;;;23.20;88.90;;;;;;4951136;29;20452;-72
2022/09/02 07:53:47;;;;;;;12.43;11.83;;;23.40;90.10;;;;;;4951422;29;20457;-72
2022/09/02 07:56:14;;;;;;;13.70;12.90;;;23.60;88.70;;;;;;4951773;29;20492;-72
2022/09/02 07:58:41;;;;;;;11.90;11.50;;;23.50;86.60;;;;;;4951566;29;20455;-72
2022/09/02 08:01:08;;;;;;;11.50;11.00;;;23.00;89.30;;;;;;4951236;29;20471;-72
2022/09/02 08:03:37;;;;;;;13.23;12.53;;;22.90;88.80;;;;;;4950768;28;20472;-72
2022/09/02 08:06:04;;;;;;;13.33;12.73;;;22.90;88.60;;;;;;4951052;29;20489;-72
2022/09/02 08:08:31;;;;;;;12.47;11.93;;;22.80;90.00;;;;;;4951139;28;20475;-71
2022/09/02 08:10:58;;;;;;;12.40;11.80;;;23.30;89.60;;;;;;4951536;29;20944;-72
2022/09/02 08:13:25;;;;;;;12.17;11.73;;;23.70;87.10;;;;;;4951288;29;21012;-71
2022/09/02 08:15:52;;;;;;;13.20;12.60;;;;;;;;;;4951186;29;20829;-72
2022/09/02 08:18:20;;;;;;;12.93;12.43;;;23.80;85.20;;;;;;4951181;29;20468;-72
2022/09/02 08:20:48;;;;;;;12.90;12.33;;;24.10;84.70;;;;;;4951042;29;20956;-72
2022/09/02 08:23:14;;;;;;;12.73;12.13;;;24.50;82.90;;;;;;4950160;29;20473;-72
2022/09/02 08:25:42;;;;;;;12.97;12.40;;;24.50;82.30;;;;;;4942777;29;20484;-73
2022/09/02 08:28:09;;;;;;;12.60;12.13;;;24.30;82.80;;;;;;4942110;29;20485;-73
2022/09/02 08:30:35;;;;;;;12.60;12.10;;;24.60;81.70;;;;;;4931974;29;20514;-73
2022/09/02 08:33:02;;;;;;;13.30;12.70;;;25.10;80.10;;;;;;4945724;29;20455;-74
2022/09/02 08:35:29;;;;;;;13.40;12.80;;;25.10;79.30;;;;;;4950503;29;20456;-73
2022/09/02 08:37:57;;;;;;;13.67;13.17;;;25.30;79.10;;;;;;4950950;29;20464;-73
2022/09/02 08:40:37;;;;;;;12.40;12.00;;;25.70;77.70;;;;;;4946393;29;20461;-71
2022/09/02 08:43:13;;;;;;;12.80;12.40;;;25.30;77.10;;;;;;4931859;29;20463;-74
2022/09/02 08:45:41;;;;;;;13.10;12.60;;;24.80;78.10;;;;;;4931916;29;20500;-74
2022/09/02 08:48:19;;;;;;;12.90;12.30;;;24.60;77.40;;;;;;4931712;29;20457;-73
2022/09/02 08:50:47;;;;;;;12.50;12.00;;;24.80;77.50;;;;;;4931912;29;20461;-72
2022/09/02 08:53:26;;;;;;;12.07;11.57;;;24.80;77.40;;;;;;4932055;29;20452;-72
2022/09/02 08:55:54;;;;;;;11.60;10.90;;;24.40;76.10;;;;;;4931642;29;20913;-72
2022/09/02 08:58:24;;;;;;;12.00;11.60;;;24.20;75.80;;;;;;4943437;29;20488;-72
2022/09/02 09:00:56;;;;;;;12.17;11.77;;;24.10;77.80;;;;;;4950814;29;20452;-73
2022/09/02 09:03:28;;;;;;;12.50;11.90;;;24.20;76.60;;;;;;4950487;29;20502;-72
2022/09/02 09:06:04;;;;;;;13.43;12.73;;;24.10;77.70;;;;;;4950911;29;20909;-72
2022/09/02 09:08:38;;;;;;;13.83;12.73;;;24.30;76.60;;;;;;4951084;29;20495;-72
2022/09/02 09:11:10;;;;;;;13.13;12.60;;;25.30;74.60;;;;;;4950879;29;20463;-73
2022/09/02 09:14:06;;;;;;;12.70;12.10;;;25.30;75.10;;;;;;4950643;29;20461;-72
2022/09/02 09:16:40;;;;;;;12.37;11.80;;;25.20;72.50;;;;;;4950630;29;20846;-73
2022/09/02 09:19:12;;;;;;;12.07;11.67;;;25.00;74.00;;;;;;4950709;28;20458;-73
2022/09/02 09:21:40;;;;;;;12.23;11.77;;;25.10;71.80;;;;;;4954055;29;20831;-73
2022/09/02 09:24:21;;;;;;;13.20;12.50;;;25.10;73.40;;;;;;4954074;29;20599;-73
2022/09/02 09:26:47;;;;;;;12.70;12.20;;;25.20;71.50;;;;;;4954014;29;20460;-73
2022/09/02 09:29:14;;;;;;;13.53;13.03;;;24.70;73.00;;;;;;4954244;29;20456;-73
2022/09/02 09:31:42;;;;;;;13.00;12.30;;;24.50;72.10;;;;;;4948711;29;20984;-73
2022/09/02 09:34:12;;;;;;;12.60;12.20;;;24.70;72.20;;;;;;4935196;29;20453;-72
2022/09/02 09:36:54;;;;;;;12.97;12.47;;;24.90;72.30;;;;;;4934938;29;20456;-72
2022/09/02 09:39:25;;;;;;;13.27;12.50;;;24.70;72.30;;;;;;4934888;29;20979;-72
2022/09/02 09:41:53;;;;;;;12.93;12.40;;;24.80;72.20;;;;;;4934975;29;20461;-72
2022/09/02 09:44:43;;;;;;;11.60;11.10;;;25.30;70.30;;;;;;4934715;29;20825;-72
2022/09/02 09:47:18;;;;;;;13.47;12.60;;;25.20;69.50;;;;;;4934816;29;20485;-72
2022/09/02 09:49:45;;;;;;;13.20;12.70;;;25.10;68.50;;;;;;4934893;29;20829;-72
2022/09/02 09:52:21;;;;;;;11.90;11.50;;;24.80;68.40;;;;;;4934843;29;20454;-72
2022/09/02 09:55:06;;;;;;;13.50;12.80;;;24.80;67.50;;;;;;4934564;29;20453;-73
2022/09/02 09:57:33;;;;;;;12.53;12.03;;;25.30;66.90;;;;;;4934561;29;20468;-72
2022/09/02 10:00:02;;;;;;;12.83;12.33;;;25.20;66.40;;;;;;4934664;29;20456;-73
2022/09/02 10:02:29;;;;;;;12.03;11.63;;;25.10;66.00;;;;;;4934495;29;20571;-72
2022/09/02 10:05:10;;;;;;;12.77;12.37;;;25.40;65.20;;;;;;4931871;29;20501;-72
2022/09/02 10:07:39;;;;;;;12.83;12.40;;;25.10;62.40;;;;;;4934297;29;20489;-72
2022/09/02 10:10:16;;;;;;;13.07;12.27;;;25.00;62.90;;;;;;4934269;29;20552;-72
2022/09/02 10:12:44;;;;;;;12.20;11.80;;;25.00;63.30;;;;;;4934272;29;20449;-71
2022/09/02 10:15:11;;;;;;;12.40;11.70;;;24.90;63.30;;;;;;4934363;29;20568;-72
2022/09/02 10:17:47;;;;;;;13.53;13.00;;;25.30;62.20;;;;;;4933818;29;20864;-72
2022/09/02 10:20:22;;;;;;;13.03;12.53;;;25.90;61.60;;;;;;4934323;29;20906;-73
2022/09/02 10:23:12;;;;;;;12.90;12.50;;;26.30;59.80;;;;;;4933894;29;20605;-72
2022/09/02 10:25:55;;;;;;;13.03;12.40;;;26.60;58.30;;;;;;4933716;29;20936;-73
2022/09/02 10:28:35;;;;;;;12.90;12.03;;;26.60;57.80;;;;;;4934010;29;20460;-73
2022/09/02 10:31:10;;;;;;;12.30;11.80;;;26.50;57.60;;;;;;4934001;29;20461;-73
2022/09/02 10:33:46;;;;;;;12.17;11.77;;;26.00;58.20;;;;;;4952909;29;20455;-73
2022/09/02 10:36:20;;;;;;;12.60;12.10;;;25.90;58.20;;;;;;4953387;29;20478;-73
2022/09/02 10:38:49;;;;;;;12.63;12.13;;;26.00;57.60;;;;;;4953277;29;20508;-73
2022/09/02 10:41:41;;;;;;;13.00;12.60;;;26.50;56.60;;;;;;4953310;29;20461;-73
2022/09/02 10:44:20;;;;;;;12.60;12.10;;;25.90;57.80;;;;;;4953225;29;20463;-73
2022/09/02 10:46:56;;;;;;;13.33;12.83;;;25.80;58.50;;;;;;4953022;29;20539;-73
2022/09/02 10:49:44;;;;;;;13.00;12.50;;;26.10;58.10;;;;;;4952855;29;20456;-73
2022/09/02 10:52:23;;;;;;;11.27;10.90;;;26.70;57.60;;;;;;4952892;29;20516;-73
2022/09/02 10:54:56;;;;;;;13.10;12.53;;;26.90;57.00;;;;;;4952548;29;20460;-73
2022/09/02 10:57:30;;;;;;;14.10;13.40;;;26.60;57.30;;;;;;4952569;29;20453;-71
2022/09/02 11:00:03;;;;;;;11.70;11.10;;;26.90;57.40;;;;;;4952708;29;20456;-71
2022/09/02 11:02:37;;;;;;;13.43;13.00;;;26.90;55.90;;;;;;4949731;29;20484;-72
2022/09/02 11:05:08;;;;;;;13.00;12.60;;;26.90;55.90;;;;;;4951544;29;20503;-73
2022/09/02 11:07:41;;;;;;;13.87;13.33;;;26.90;56.40;;;;;;4951871;29;20468;-72
2022/09/02 11:10:12;;;;;;;13.03;12.50;;;27.10;56.90;;;;;;4951939;29;20460;-72
2022/09/02 11:12:46;;;;;;;13.60;13.10;;;27.00;56.40;;;;;;4951998;29;20492;-73
2022/09/02 11:15:20;;;;;;;14.60;14.00;;;26.80;55.30;;;;;;4952225;29;20448;-73
2022/09/02 11:17:53;;;;;;;13.00;12.60;;;27.30;55.30;;;;;;4951722;29;20464;-73
2022/09/02 11:20:29;;;;;;;12.87;12.47;;;27.60;54.70;;;;;;4951907;29;20511;-73
2022/09/02 11:23:02;;;;;;;13.83;13.33;;;27.70;55.20;;;;;;4952090;29;20452;-73
2022/09/02 11:25:37;;;;;;;13.60;13.20;;;27.90;54.50;;;;;;4955272;29;20499;-73
2022/09/02 11:28:22;;;;;;;15.33;14.53;;;27.80;53.90;;;;;;4953943;29;20463;-73
2022/09/02 11:30:55;;;;;;;12.87;12.27;;;27.60;54.20;;;;;;4951884;29;21178;-73
2022/09/02 11:33:28;;;;;;;14.20;13.70;;;27.50;54.10;;;;;;4932803;29;20952;-73
2022/09/02 11:35:57;;;;;;;14.73;14.13;;;27.90;53.30;;;;;;4932557;29;20945;-72
2022/09/02 11:38:33;;;;;;;13.67;12.97;;;28.00;53.20;;;;;;4932331;29;20465;-73
2022/09/02 11:41:32;;;;;;;13.70;13.20;;;26.90;56.10;;;;;;4932977;29;20821;-75
2022/09/02 11:44:15;;;;;;;13.70;13.20;;;27.40;55.00;;;;;;4928675;29;20836;-74
2022/09/02 11:47:01;;;;;;;14.10;13.70;;;27.10;54.80;;;;;;4932657;29;20504;-74
2022/09/02 11:49:55;;;;;;;14.33;13.83;;;27.70;54.40;;;;;;4932726;29;20461;-74
2022/09/02 11:52:34;;;;;;;15.00;14.50;;;27.60;54.30;;;;;;4932292;29;20453;-74
2022/09/02 11:55:11;;;;;;;14.63;14.03;;;27.90;54.00;;;;;;4932430;29;20915;-74
2022/09/02 11:57:40;;;;;;;13.47;13.00;;;28.20;53.40;;;;;;4932125;29;20456;-74
2022/09/02 12:00:13;;;;;;;14.20;13.70;;;27.70;54.10;;;;;;4932306;29;20875;-74
2022/09/02 12:02:44;;;;;;;14.73;14.13;;;27.70;53.90;;;;;;4932404;29;20477;-74
2022/09/02 12:05:54;;;;;;;14.43;13.87;;;28.00;53.00;;;;;;4932597;29;20478;-74
2022/09/02 12:08:59;;;;;;;13.60;13.20;;;28.00;52.10;;;;;;4917871;29;20464;-73
2022/09/02 12:11:49;;;;;;;13.57;13.07;;;29.70;50.90;;;;;;4915654;29;20551;-75
2022/09/02 12:14:53;;;;;;;14.77;14.13;;;30.60;48.60;;;;;;4932603;29;20485;-74
2022/09/02 12:17:36;;;;;;;13.73;13.23;;;31.10;48.50;;;;;;4932364;29;20453;-75
2022/09/02 12:20:05;;;;;;;13.90;13.40;;;29.90;49.40;;;;;;4932521;29;20472;-74
2022/09/02 12:22:37;;;;;;;13.90;13.40;;;29.00;50.80;;;;;;4932461;29;20492;-73
2022/09/02 12:25:05;;;;;;;14.30;13.80;;;27.60;52.40;;;;;;4932465;29;20465;-74
2022/09/02 12:27:36;;;;;;;13.13;12.53;;;27.70;52.70;;;;;;4932389;29;20971;-74
2022/09/02 12:30:08;;;;;;;13.40;13.00;;;27.60;53.60;;;;;;4932459;29;20462;-74
2022/09/02 12:33:03;;;;;;;13.93;13.43;;;27.50;53.20;;;;;;4941206;29;20494;-74
2022/09/02 12:35:50;;;;;;;13.73;13.33;;;27.50;52.70;;;;;;4943110;29;20487;-75
2022/09/02 12:38:37;;;;;;;13.90;13.40;;;27.60;52.80;;;;;;4935517;29;20455;-75
2022/09/02 12:41:29;;;;;;;13.57;13.07;;;28.00;52.70;;;;;;4936104;29;20524;-75
2022/09/02 12:44:21;;;;;;;13.77;13.10;;;28.10;52.70;;;;;;4951723;29;20456;-75
2022/09/02 12:47:00;;;;;;;14.03;13.57;;;28.50;52.50;;;;;;4951200;29;20500;-75
2022/09/02 12:49:48;;;;;;;13.67;13.17;;;27.90;53.50;;;;;;4948514;29;20458;-75
2022/09/02 12:52:41;;;;;;;13.80;13.20;;;27.90;53.20;;;;;;4932179;29;21013;-75
2022/09/02 12:55:15;;;;;;;14.00;13.50;;;27.40;54.20;;;;;;4933694;28;20460;-75
2022/09/02 12:57:44;;;;;;;14.57;14.07;;;27.50;53.60;;;;;;4945301;29;20468;-74
2022/09/02 13:00:14;;;;;;;14.30;13.70;;;27.50;53.90;;;;;;4954841;29;20452;-75
2022/09/02 13:02:55;;;;;;;12.93;12.53;;;27.50;53.90;;;;;;4955061;29;20472;-74
2022/09/02 13:05:28;;;;;;;14.30;13.90;;;27.50;52.80;;;;;;4954525;29;20491;-74
2022/09/02 13:08:32;;;;;;;13.20;12.80;;;27.90;53.00;;;;;;4941141;29;20456;-76
2022/09/02 13:11:32;;;;;;;14.40;13.90;;;28.30;52.50;;;;;;4935761;29;20461;-75
2022/09/02 13:14:33;;;;;;;14.50;13.90;;;28.80;52.00;;;;;;4932490;29;20469;-76
2022/09/02 13:17:17;;;;;;;14.67;14.07;;;29.50;51.40;;;;;;4935337;29;20460;-76
2022/09/02 13:20:18;;;;;;;14.10;13.60;;;29.30;51.10;;;;;;4935716;29;20460;-75
2022/09/02 13:23:01;;;;;;;14.20;13.50;;;28.50;51.90;;;;;;4935484;29;20461;-76
2022/09/02 13:26:02;;;;;;;13.70;13.30;;;28.10;52.10;;;;;;4935501;29;20461;-76
2022/09/02 13:28:59;;;;;;;14.07;13.60;;;28.50;52.40;;;;;;4935652;29;20453;-75
2022/09/02 13:31:27;;;;;;;14.53;14.07;;;29.50;51.00;;;;;;4938743;29;20504;-75
2022/09/02 13:33:59;;;;;;;14.60;14.10;;;30.90;49.30;;;;;;4954163;29;20511;-76
2022/09/02 13:36:29;;;;;;;14.60;14.10;;;30.60;49.10;;;;;;4954487;29;20452;-76
2022/09/02 13:39:10;;;;;;;14.63;14.03;;;30.50;49.40;;;;;;4954472;29;20515;-75
2022/09/02 13:41:36;;;;;;;13.90;13.40;;;29.90;50.10;;;;;;4943713;29;20456;-75
2022/09/02 13:44:08;;;;;;;13.73;13.23;;;28.60;52.70;;;;;;4935071;29;20458;-75
2022/09/02 13:46:47;;;;;;;13.40;12.90;;;27.80;53.60;;;;;;4934676;29;20496;-75
2022/09/02 13:49:26;;;;;;;13.93;13.43;;;27.70;53.60;;;;;;4935143;29;20516;-75
2022/09/02 13:51:54;;;;;;;12.80;12.40;;;28.40;53.00;;;;;;4935142;29;20457;-74
2022/09/02 13:54:31;;;;;;;12.83;12.33;;;27.90;53.20;;;;;;4951485;29;20463;-74
2022/09/02 13:57:00;;;;;;;14.17;13.67;;;27.20;55.10;;;;;;4954195;29;20448;-74
2022/09/02 13:59:38;;;;;;;12.90;12.40;;;27.70;54.20;;;;;;4954028;29;20456;-74
2022/09/02 14:02:32;;;;;;;13.83;13.27;;;28.10;54.50;;;;;;4953674;28;21208;-74
2022/09/02 14:05:03;;;;;;;13.90;13.50;;;28.30;54.00;;;;;;4908916;29;20488;-74
2022/09/02 14:07:37;;;;;;;14.67;14.07;;;29.40;52.70;;;;;;4953655;29;20516;-72
2022/09/02 14:10:09;;;;;;;13.80;13.10;;;28.50;53.30;;;;;;4953901;29;20483;-73
2022/09/02 14:12:38;;;;;;;14.50;13.70;;;28.10;53.80;;;;;;4945221;29;21013;-72
2022/09/02 14:15:07;;;;;;;14.10;13.40;;;27.60;54.20;;;;;;4943744;29;20449;-72
2022/09/02 14:17:34;;;;;;;14.73;13.87;;;27.90;54.90;;;;;;4944737;29;20460;-72
2022/09/02 14:20:18;;;;;;;14.50;13.90;;;28.20;54.10;;;;;;4941900;29;20445;-73
2022/09/02 14:22:52;;;;;;;13.87;13.37;;;27.40;55.10;;;;;;4943640;29;20464;-73
2022/09/02 14:25:22;;;;;;;14.87;14.27;;;26.70;56.20;;;;;;4942778;29;20468;-73
2022/09/02 14:27:50;;;;;;;14.93;14.33;;;26.00;57.20;;;;;;4943165;29;20492;-73
2022/09/02 14:30:30;;;;;;;14.50;13.90;;;25.40;58.50;;;;;;4944300;29;20806;-73
2022/09/02 14:33:19;;;;;;;14.23;13.73;;;25.10;59.20;;;;;;4946384;29;20450;-73
2022/09/02 14:35:56;;;;;;;14.00;13.30;;;24.80;60.30;;;;;;4943522;29;20454;-73
2022/09/02 14:38:24;;;;;;;14.03;13.53;;;24.60;61.10;;;;;;4943132;29;20462;-73
2022/09/02 14:40:59;;;;;;;13.73;13.23;;;24.70;62.20;;;;;;4942559;29;20453;-73
2022/09/02 14:43:26;;;;;;;14.00;13.50;;;24.80;61.00;;;;;;4944657;29;20495;-73
2022/09/02 14:46:05;;;;;;;13.00;12.60;;;24.60;61.20;;;;;;4944090;29;21077;-73
2022/09/02 14:48:37;;;;;;;12.90;12.30;;;24.60;61.30;;;;;;4944075;29;20876;-73
2022/09/02 14:51:07;;;;;;;13.67;13.17;;;24.70;62.90;;;;;;4942993;29;20953;-74
2022/09/02 14:53:36;;;;;;;12.60;12.10;;;24.60;62.70;;;;;;4942092;29;20458;-72
2022/09/02 14:56:05;;;;;;;13.33;12.83;;;24.60;62.70;;;;;;4942333;29;20445;-74
2022/09/02 14:58:32;;;;;;;13.63;13.13;;;24.70;63.90;;;;;;4942215;29;20453;-73
2022/09/02 15:01:00;;;;;;;13.80;13.30;;;24.70;63.80;;;;;;4953067;29;20813;-73
2022/09/02 15:03:28;;;;;;;13.37;12.87;;;24.70;63.10;;;;;;4952836;28;20492;-73
2022/09/02 15:05:55;;;;;;;13.37;12.87;;;24.60;64.00;;;;;;4952867;29;20455;-73
2022/09/02 15:08:22;;;;;;;12.93;12.53;;;24.50;62.40;;;;;;4952661;29;20461;-73
2022/09/02 15:10:49;;;;;;;12.90;12.40;;;24.60;62.90;;;;;;4952616;29;20461;-72
2022/09/02 15:13:25;;;;;;;13.43;12.83;;;24.60;62.50;;;;;;4952783;29;20826;-73
2022/09/02 15:15:54;;;;;;;12.70;12.30;;;24.60;63.20;;;;;;4950880;29;20511;-72
2022/09/02 15:18:21;;;;;;;12.63;12.10;;;24.60;62.70;;;;;;4952198;28;21089;-73
2022/09/02 15:20:48;;;;;;;12.27;11.87;;;24.70;62.70;;;;;;4952553;29;20484;-73
2022/09/02 15:23:15;;;;;;;13.07;12.47;;;24.70;63.30;;;;;;4952683;29;20463;-73
2022/09/02 15:25:42;;;;;;;12.97;12.47;;;24.70;63.30;;;;;;4952707;29;20468;-72
2022/09/02 15:28:10;;;;;;;12.20;11.70;;;24.70;62.10;;;;;;4952243;29;20496;-72
2022/09/02 15:30:38;;;;;;;12.53;11.67;;;24.60;62.50;;;;;;4952284;29;20456;-74
2022/09/02 15:33:05;;;;;;;13.50;13.00;;;24.50;62.30;;;;;;4952208;29;20519;-72
2022/09/02 15:35:33;;;;;;;12.47;11.97;;;24.50;63.20;;;;;;4952267;29;20503;-73
2022/09/02 15:38:00;;;;;;;13.40;12.17;;;24.50;62.60;;;;;;4952486;29;20452;-72
2022/09/02 15:40:28;;;;;;;13.33;12.80;;;24.40;63.00;;;;;;4952335;29;20491;-72
2022/09/02 15:42:55;;;;;;;13.27;12.67;;;24.50;63.10;;;;;;4952317;29;20448;-72
2022/09/02 15:45:22;;;;;;;13.80;13.23;;;24.50;63.30;;;;;;4952223;29;20452;-73
2022/09/02 15:47:50;;;;;;;11.50;11.13;;;24.50;62.80;;;;;;4953023;29;20583;-73
2022/09/02 15:50:16;;;;;;;12.60;12.20;;;24.50;62.20;;;;;;4952719;29;20511;-73
2022/09/02 15:52:45;;;;;;;12.70;12.30;;;24.40;62.50;;;;;;4952781;29;20463;-72
2022/09/02 15:55:12;;;;;;;11.67;11.07;;;24.40;63.30;;;;;;4952909;29;20515;-72
2022/09/02 15:57:38;;;;;;;12.33;11.93;;;24.30;62.80;;;;;;4954969;29;20519;-73
2022/09/02 16:00:07;;;;;;;12.50;11.90;;;24.30;62.70;;;;;;4955889;29;20456;-73
2022/09/02 16:02:33;;;;;;;11.90;11.40;;;24.30;63.30;;;;;;4953829;28;20551;-72
2022/09/02 16:05:01;;;;;;;12.73;12.20;;;24.20;62.40;;;;;;4952071;29;20492;-72
2022/09/02 16:07:28;;;;;;;12.60;12.10;;;24.20;62.80;;;;;;4952910;29;20852;-72
2022/09/02 16:09:55;;;;;;;12.60;11.60;;;24.10;62.20;;;;;;4954533;29;20827;-71
2022/09/02 16:12:23;;;;;;;12.53;11.90;;;24.20;61.90;;;;;;4954860;29;20452;-71
2022/09/02 16:14:50;;;;;;;10.83;10.40;;;24.10;61.80;;;;;;4953160;29;20464;-71
2022/09/02 16:17:17;;;;;;;12.10;11.70;;;24.00;62.20;;;;;;4952660;29;20949;-73
2022/09/02 16:19:43;;;;;;;12.23;11.73;;;24.00;63.10;;;;;;4952236;29;20484;-74
2022/09/02 16:22:11;;;;;;;12.13;11.70;;;24.00;63.10;;;;;;4950096;29;20464;-71
2022/09/02 16:24:38;;;;;;;12.03;11.60;;;24.00;63.30;;;;;;4951833;29;20545;-72
2022/09/02 16:27:05;;;;;;;12.50;12.00;;;24.00;64.30;;;;;;4951330;29;21240;-71
2022/09/02 16:29:32;;;;;;;11.20;10.50;;;24.00;64.80;;;;;;4953605;28;20452;-72
2022/09/02 16:31:58;;;;;;;10.97;10.57;;;24.00;64.60;;;;;;4955653;29;20823;-72
2022/09/02 16:34:25;;;;;;;11.33;10.83;;;23.90;64.70;;;;;;4955583;29;20464;-72
2022/09/02 16:36:52;;;;;;;12.27;11.70;;;23.90;64.90;;;;;;4955434;29;20967;-72
2022/09/02 16:39:20;;;;;;;11.47;10.97;;;23.90;64.90;;;;;;4955427;29;20464;-72
2022/09/02 16:41:48;;;;;;;12.27;11.77;;;23.80;65.00;;;;;;4955132;29;20456;-72
2022/09/02 16:44:17;;;;;;;11.80;11.30;;;23.80;66.00;;;;;;4955801;29;20471;-72
2022/09/02 16:46:45;;;;;;;11.50;11.10;;;23.80;66.10;;;;;;4955338;29;20518;-73
2022/09/02 16:49:13;;;;;;;12.13;11.40;;;23.70;66.70;;;;;;4955237;29;20780;-72
2022/09/02 16:51:40;;;;;;;11.80;11.30;;;23.70;66.90;;;;;;4955013;29;20455;-71
2022/09/02 16:54:08;;;;;;;11.70;11.20;;;23.70;67.00;;;;;;4954759;29;20460;-72
2022/09/02 16:56:37;;;;;;;12.10;11.50;;;23.60;67.20;;;;;;4955228;29;20456;-72
2022/09/02 16:59:06;;;;;;;13.20;12.40;;;23.70;67.30;;;;;;4955287;29;20621;-72